createdAt,value
2018-11-13T00:00:22.406Z,10.50
2018-11-13T00:02:51.645Z,10.50
2018-11-13T00:05:20.462Z,10.50
2018-11-13T00:07:48.930Z,10.50
2018-11-13T00:10:17.481Z,10.50
2018-11-13T00:12:45.926Z,10.50
2018-11-13T00:15:14.402Z,10.50
2018-11-13T00:17:42.841Z,10.50
2018-11-13T00:20:13.394Z,10.50
2018-11-13T00:22:42.263Z,10.50
2018-11-13T00:25:12.432Z,10.50
2018-11-13T00:27:41.634Z,10.50
2018-11-13T00:30:13.806Z,10.50
2018-11-13T00:32:42.686Z,10.50
2018-11-13T00:35:11.789Z,10.50
2018-11-13T00:37:40.233Z,10.40
2018-11-13T00:40:09.870Z,10.40
2018-11-13T00:42:38.465Z,10.50
2018-11-13T00:45:07.198Z,10.40
2018-11-13T00:47:35.650Z,10.40
2018-11-13T00:50:04.273Z,10.40
2018-11-13T00:52:32.984Z,10.50
2018-11-13T00:55:02.168Z,10.40
2018-11-13T00:57:30.530Z,10.40
2018-11-13T00:59:58.978Z,10.50
2018-11-13T01:02:27.802Z,10.40
2018-11-13T01:04:56.276Z,10.50
2018-11-13T01:07:24.859Z,10.50
2018-11-13T01:09:53.559Z,10.40
2018-11-13T01:12:22.681Z,10.50
2018-11-13T01:14:51.552Z,10.40
2018-11-13T01:17:20.185Z,10.40
2018-11-13T01:19:48.786Z,10.40
2018-11-13T01:22:17.286Z,10.40
2018-11-13T01:24:45.754Z,10.30
2018-11-13T01:27:14.226Z,10.30
2018-11-13T01:29:46.922Z,10.30
2018-11-13T01:32:15.418Z,10.30
2018-11-13T01:34:43.953Z,10.30
2018-11-13T01:37:12.431Z,10.30
2018-11-13T01:39:40.999Z,10.30
2018-11-13T01:42:09.574Z,10.20
2018-11-13T01:44:38.035Z,10.30
2018-11-13T01:47:06.894Z,10.20
2018-11-13T01:49:35.674Z,10.20
2018-11-13T01:52:05.331Z,10.20
2018-11-13T01:54:33.817Z,10.20
2018-11-13T01:57:02.481Z,10.20
2018-11-13T01:59:31.146Z,10.20
2018-11-13T02:01:59.629Z,10.20
2018-11-13T02:04:28.100Z,10.20
2018-11-13T02:06:56.635Z,10.20
2018-11-13T02:09:25.103Z,10.20
2018-11-13T02:11:53.589Z,10.20
2018-11-13T02:14:22.059Z,10.10
2018-11-13T02:16:50.686Z,10.20
2018-11-13T02:19:19.186Z,10.10
2018-11-13T02:21:47.662Z,10.20
2018-11-13T02:24:16.117Z,10.10
2018-11-13T02:26:44.605Z,10.10
2018-11-13T02:29:13.078Z,10.10
2018-11-13T02:31:41.562Z,10.10
2018-11-13T02:34:10.097Z,10.00
2018-11-13T02:36:38.607Z,10.10
2018-11-13T02:39:09.469Z,10.10
2018-11-13T02:41:37.974Z,10.00
2018-11-13T02:44:06.625Z,10.00
2018-11-13T02:46:35.118Z,10.00
2018-11-13T02:49:04.049Z,10.00
2018-11-13T02:51:32.541Z,10.00
2018-11-13T02:54:01.001Z,10.00
2018-11-13T02:56:43.986Z,10.00
2018-11-13T02:59:12.461Z,10.00
2018-11-13T03:01:40.950Z,10.00
2018-11-13T03:04:09.654Z,10.00
2018-11-13T03:06:38.155Z,10.00
2018-11-13T03:09:07.889Z,10.00
2018-11-13T03:11:36.789Z,10.00
2018-11-13T03:14:05.630Z,9.90
2018-11-13T03:16:34.130Z,9.90
2018-11-13T03:19:02.594Z,9.90
2018-11-13T03:21:31.045Z,9.90
2018-11-13T03:23:59.531Z,9.90
2018-11-13T03:26:27.994Z,9.90
2018-11-13T03:28:56.492Z,9.90
2018-11-13T03:31:25.041Z,9.90
2018-11-13T03:33:53.677Z,9.90
2018-11-13T03:36:22.167Z,9.90
2018-11-13T03:38:50.654Z,9.90
2018-11-13T03:41:19.113Z,9.90
2018-11-13T03:43:47.643Z,9.90
2018-11-13T03:46:16.082Z,9.90
2018-11-13T03:48:44.678Z,9.90
2018-11-13T03:51:13.130Z,9.80
2018-11-13T03:53:41.598Z,9.80
2018-11-13T03:56:10.101Z,9.80
2018-11-13T03:58:38.627Z,9.70
2018-11-13T04:01:07.093Z,9.80
2018-11-13T04:03:35.546Z,9.80
2018-11-13T04:06:04.019Z,9.80
2018-11-13T04:08:32.526Z,9.80
2018-11-13T04:11:00.992Z,9.80
2018-11-13T04:13:29.446Z,9.80
2018-11-13T04:15:57.890Z,9.90
2018-11-13T04:18:26.363Z,9.90
2018-11-13T04:20:54.806Z,9.90
2018-11-13T04:23:23.279Z,9.90
2018-11-13T04:25:52.074Z,10.00
2018-11-13T04:28:20.542Z,9.90
2018-11-13T04:30:49.057Z,9.90
2018-11-13T04:33:17.642Z,9.90
2018-11-13T04:35:46.113Z,9.90
2018-11-13T04:38:14.689Z,10.00
2018-11-13T04:40:43.151Z,10.00
2018-11-13T04:43:11.624Z,10.00
2018-11-13T04:45:40.087Z,10.00
2018-11-13T04:48:08.557Z,10.00
2018-11-13T04:50:37.007Z,10.00
2018-11-13T04:53:05.783Z,10.00
2018-11-13T04:55:34.234Z,10.00
2018-11-13T04:58:02.706Z,10.00
2018-11-13T05:00:31.159Z,10.00
2018-11-13T05:02:59.696Z,10.00
2018-11-13T05:05:29.261Z,9.90
2018-11-13T05:07:57.728Z,9.90
2018-11-13T05:10:26.537Z,9.90
2018-11-13T05:12:55.022Z,9.80
2018-11-13T05:15:23.456Z,9.80
2018-11-13T05:17:51.930Z,9.80
2018-11-13T05:20:20.385Z,9.80
2018-11-13T05:22:48.837Z,9.80
2018-11-13T05:25:18.702Z,9.80
2018-11-13T05:27:47.167Z,9.80
2018-11-13T05:30:17.645Z,9.80
2018-11-13T05:32:46.106Z,9.80
2018-11-13T05:35:16.217Z,9.90
2018-11-13T05:37:45.161Z,9.90
2018-11-13T05:40:15.539Z,9.90
2018-11-13T05:42:44.098Z,10.00
2018-11-13T05:45:15.554Z,10.00
2018-11-13T05:47:44.204Z,10.00
2018-11-13T05:50:14.142Z,10.00
2018-11-13T05:52:43.365Z,10.00
2018-11-13T05:55:12.200Z,10.00
2018-11-13T05:57:40.774Z,10.00
2018-11-13T06:00:11.928Z,9.90
2018-11-13T06:02:41.513Z,9.90
2018-11-13T06:05:10.566Z,9.90
2018-11-13T06:07:39.443Z,9.90
2018-11-13T06:10:10.189Z,9.80
2018-11-13T06:12:39.035Z,9.80
2018-11-13T06:15:08.170Z,9.80
2018-11-13T06:17:36.644Z,9.80
2018-11-13T06:20:06.005Z,9.80
2018-11-13T06:22:34.486Z,9.80
2018-11-13T06:25:02.989Z,9.70
2018-11-13T06:27:31.595Z,9.70
2018-11-13T06:30:00.165Z,9.70
2018-11-13T06:32:28.611Z,9.60
2018-11-13T06:34:57.077Z,9.70
2018-11-13T06:37:25.526Z,9.70
2018-11-13T06:39:53.999Z,9.60
2018-11-13T06:42:22.478Z,9.60
2018-11-13T06:44:50.958Z,9.60
2018-11-13T06:47:19.462Z,9.60
2018-11-13T06:49:47.928Z,9.60
2018-11-13T06:52:16.368Z,9.60
2018-11-13T06:55:21.175Z,9.50
2018-11-13T06:57:49.690Z,9.50
2018-11-13T07:00:18.789Z,9.50
2018-11-13T07:02:47.274Z,9.50
2018-11-13T07:05:16.742Z,9.50
2018-11-13T07:07:45.625Z,9.50
2018-11-13T07:10:16.170Z,9.50
2018-11-13T07:12:46.794Z,9.50
2018-11-13T07:15:18.557Z,9.50
2018-11-13T07:17:48.414Z,9.50
2018-11-13T07:21:19.608Z,9.40
2018-11-13T07:23:48.142Z,9.50
2018-11-13T07:26:16.612Z,9.50
2018-11-13T07:28:45.079Z,9.50
2018-11-13T07:31:13.604Z,9.60
2018-11-13T07:33:42.278Z,9.70
2018-11-13T07:36:10.834Z,9.80
2018-11-13T07:38:39.302Z,9.80
2018-11-13T07:41:08.252Z,9.90
2018-11-13T07:43:36.806Z,10.00
2018-11-13T07:46:05.809Z,10.00
2018-11-13T07:48:34.271Z,10.10
2018-11-13T07:51:02.810Z,10.10
2018-11-13T07:53:31.398Z,10.20
2018-11-13T07:55:59.862Z,10.30
2018-11-13T07:58:28.352Z,10.40
2018-11-13T08:00:56.982Z,10.40
2018-11-13T08:03:33.592Z,10.40
2018-11-13T08:06:05.284Z,10.50
2018-11-13T08:08:35.577Z,10.50
2018-11-13T08:11:04.970Z,10.60
2018-11-13T08:13:34.412Z,10.60
2018-11-13T08:16:03.045Z,10.60
2018-11-13T08:18:32.055Z,10.60
2018-11-13T08:21:00.683Z,10.60
2018-11-13T08:23:29.574Z,10.70
2018-11-13T08:25:58.051Z,10.80
2018-11-13T08:28:26.552Z,10.90
2018-11-13T08:30:55.312Z,10.90
2018-11-13T08:33:24.739Z,10.90
2018-11-13T08:35:54.519Z,11.00
2018-11-13T08:38:22.985Z,11.00
2018-11-13T08:40:52.277Z,11.00
2018-11-13T08:43:20.822Z,11.00
2018-11-13T08:45:51.389Z,11.00
2018-11-13T08:48:19.938Z,11.00
2018-11-13T08:50:50.034Z,11.00
2018-11-13T08:53:18.733Z,11.10
2018-11-13T08:55:47.242Z,11.10
2018-11-13T08:58:15.711Z,11.00
2018-11-13T09:00:44.371Z,11.00
2018-11-13T09:03:12.830Z,11.10
2018-11-13T09:05:41.704Z,11.10
2018-11-13T09:08:10.178Z,11.10
2018-11-13T09:10:38.941Z,11.10
2018-11-13T09:13:07.418Z,11.00
2018-11-13T09:15:35.869Z,11.00
2018-11-13T09:18:04.420Z,11.00
2018-11-13T09:20:33.006Z,11.00
2018-11-13T09:23:01.467Z,11.00
2018-11-13T09:25:29.937Z,11.00
2018-11-13T09:27:58.409Z,10.90
2018-11-13T09:30:27.080Z,11.00
2018-11-13T09:32:55.559Z,11.00
2018-11-13T09:35:24.198Z,11.10
2018-11-13T09:37:52.643Z,11.20
2018-11-13T09:40:21.464Z,11.30
2018-11-13T09:42:51.169Z,11.30
2018-11-13T09:45:19.700Z,11.30
2018-11-13T09:47:48.248Z,11.40
2018-11-13T09:50:18.054Z,11.50
2018-11-13T09:52:47.734Z,11.50
2018-11-13T09:55:17.789Z,11.70
2018-11-13T09:57:46.257Z,11.70
2018-11-13T10:00:18.902Z,11.80
2018-11-13T10:02:49.226Z,11.90
2018-11-13T10:05:18.460Z,12.00
2018-11-13T10:07:47.991Z,12.10
2018-11-13T10:10:16.555Z,12.20
2018-11-13T10:12:45.142Z,12.10
2018-11-13T10:15:16.445Z,12.20
2018-11-13T10:17:45.302Z,12.30
2018-11-13T10:20:15.017Z,12.40
2018-11-13T10:22:44.911Z,12.50
2018-11-13T10:25:13.353Z,12.50
2018-11-13T10:27:42.401Z,12.50
2018-11-13T10:30:14.878Z,12.50
2018-11-13T10:32:43.725Z,12.50
2018-11-13T10:35:13.163Z,12.50
2018-11-13T10:37:41.865Z,12.50
2018-11-13T10:40:12.503Z,12.50
2018-11-13T10:42:41.523Z,12.60
2018-11-13T10:45:12.731Z,12.60
2018-11-13T10:47:41.827Z,12.60
2018-11-13T10:50:14.490Z,12.50
2018-11-13T10:52:43.648Z,12.50
2018-11-13T10:55:12.184Z,12.50
2018-11-13T10:57:41.373Z,12.50
2018-11-13T11:02:18.351Z,12.70
2018-11-13T11:04:48.515Z,12.70
2018-11-13T11:07:16.982Z,12.90
2018-11-13T11:09:45.750Z,12.90
2018-11-13T11:12:14.335Z,12.70
2018-11-13T11:14:43.655Z,12.50
2018-11-13T11:17:12.290Z,12.30
2018-11-13T11:19:40.734Z,12.10
2018-11-13T11:22:09.170Z,12.00
2018-11-13T11:24:37.625Z,11.90
2018-11-13T11:27:06.090Z,11.80
2018-11-13T11:29:34.543Z,11.70
2018-11-13T11:32:03.334Z,11.60
2018-11-13T11:34:31.785Z,11.50
2018-11-13T11:37:00.221Z,11.30
2018-11-13T11:39:28.674Z,10.90
2018-11-13T11:41:57.114Z,10.80
2018-11-13T11:44:25.641Z,10.60
2018-11-13T11:46:54.208Z,10.60
2018-11-13T11:49:22.664Z,10.60
2018-11-13T11:51:51.094Z,10.60
2018-11-13T11:54:19.562Z,10.60
2018-11-13T11:56:47.977Z,10.70
2018-11-13T11:59:16.442Z,10.80
2018-11-13T12:01:44.864Z,10.80
2018-11-13T12:04:13.317Z,10.80
2018-11-13T12:06:41.746Z,10.90
2018-11-13T12:09:10.883Z,10.80
2018-11-13T12:11:40.550Z,10.70
2018-11-13T12:14:09.064Z,10.70
2018-11-13T12:16:38.146Z,10.60
2018-11-13T12:19:07.378Z,10.70
2018-11-13T12:21:35.910Z,10.90
2018-11-13T12:24:04.495Z,11.00
2018-11-13T12:26:33.126Z,11.10
2018-11-13T12:29:01.571Z,11.20
2018-11-13T12:31:30.037Z,11.10
2018-11-13T12:33:58.474Z,11.20
2018-11-13T12:36:26.915Z,11.20
2018-11-13T12:38:55.366Z,11.20
2018-11-13T12:41:23.791Z,11.20
2018-11-13T12:43:52.251Z,11.10
2018-11-13T12:46:20.709Z,11.00
2018-11-13T12:48:49.336Z,10.90
2018-11-13T12:51:23.245Z,10.90
2018-11-13T12:53:51.715Z,10.90
2018-11-13T12:56:20.196Z,11.00
2018-11-13T12:58:48.790Z,11.10
2018-11-13T13:01:17.225Z,11.10
2018-11-13T13:03:47.387Z,11.10
2018-11-13T13:06:15.794Z,11.20
2018-11-13T13:08:44.279Z,11.20
2018-11-13T13:11:12.888Z,11.20
2018-11-13T13:13:43.675Z,11.20
2018-11-13T13:16:14.959Z,11.30
2018-11-13T13:18:43.493Z,11.50
2018-11-13T13:21:12.407Z,11.60
2018-11-13T13:23:40.838Z,11.60
2018-11-13T13:26:09.377Z,11.70
2018-11-13T13:28:37.830Z,11.70
2018-11-13T13:31:06.779Z,11.70
2018-11-13T13:33:35.628Z,11.70
2018-11-13T13:36:04.754Z,11.60
2018-11-13T13:38:35.505Z,11.70
2018-11-13T13:41:04.686Z,11.70
2018-11-13T13:43:33.968Z,11.70
2018-11-13T13:46:02.419Z,11.70
2018-11-13T13:48:30.871Z,11.70
2018-11-13T13:50:59.402Z,11.60
2018-11-13T13:53:28.217Z,11.60
2018-11-13T13:55:56.686Z,11.70
2018-11-13T13:58:25.682Z,11.70
2018-11-13T14:00:54.764Z,11.70
2018-11-13T14:03:23.298Z,11.70
2018-11-13T14:05:51.813Z,11.70
2018-11-13T14:08:20.739Z,11.80
2018-11-13T14:10:49.537Z,11.90
2018-11-13T14:13:18.045Z,11.90
2018-11-13T14:15:46.521Z,12.00
2018-11-13T14:18:14.954Z,12.00
2018-11-13T14:20:43.466Z,11.90
2018-11-13T14:23:12.419Z,12.00
2018-11-13T14:25:40.898Z,11.90
2018-11-13T14:28:09.338Z,11.90
2018-11-13T14:30:38.230Z,11.90
2018-11-13T14:33:09.054Z,11.80
2018-11-13T14:35:37.669Z,11.70
2018-11-13T14:38:07.254Z,11.70
2018-11-13T14:40:38.110Z,11.70
2018-11-13T14:43:06.967Z,11.60
2018-11-13T14:45:35.579Z,11.60
2018-11-13T14:48:04.097Z,11.50
2018-11-13T14:50:34.267Z,11.50
2018-11-13T14:53:03.119Z,11.50
2018-11-13T14:55:36.362Z,11.40
2018-11-13T14:58:05.876Z,11.40
2018-11-13T15:00:36.189Z,11.30
2018-11-13T15:03:05.792Z,11.20
2018-11-13T15:05:34.705Z,11.20
2018-11-13T15:08:04.695Z,11.20
2018-11-13T15:10:47.374Z,11.10
2018-11-13T15:13:20.414Z,11.10
2018-11-13T15:15:48.930Z,11.10
2018-11-13T15:18:17.674Z,11.10
2018-11-13T15:20:46.788Z,11.10
2018-11-13T15:23:15.659Z,11.10
2018-11-13T15:25:44.830Z,11.00
2018-11-13T15:28:13.540Z,11.00
2018-11-13T15:30:46.032Z,10.90
2018-11-13T15:33:17.966Z,10.90
2018-11-13T15:35:46.462Z,11.00
2018-11-13T15:38:14.917Z,10.90
2018-11-13T15:40:43.547Z,10.90
2018-11-13T15:43:11.979Z,10.90
2018-11-13T15:45:40.452Z,10.80
2018-11-13T15:48:10.453Z,10.80
2018-11-13T15:50:39.343Z,10.70
2018-11-13T15:53:08.066Z,10.70
2018-11-13T15:55:36.546Z,10.60
2018-11-13T15:58:05.471Z,10.50
2018-11-13T16:00:35.278Z,10.50
2018-11-13T16:03:07.331Z,10.40
2018-11-13T16:05:38.254Z,10.40
2018-11-13T16:08:07.745Z,10.40
2018-11-13T16:10:36.226Z,10.40
2018-11-13T16:13:05.363Z,10.40
2018-11-13T16:15:33.982Z,10.40
2018-11-13T16:18:03.826Z,10.30
2018-11-13T16:20:32.298Z,10.30
2018-11-13T16:23:00.797Z,10.30
2018-11-13T16:25:29.331Z,10.20
2018-11-13T16:27:57.978Z,10.20
2018-11-13T16:30:28.487Z,10.20
2018-11-13T16:32:57.002Z,10.10
2018-11-13T16:35:26.357Z,10.10
2018-11-13T16:37:56.101Z,10.10
2018-11-13T16:40:28.002Z,10.10
2018-11-13T16:42:56.498Z,10.10
2018-11-13T16:45:25.681Z,10.00
2018-11-13T16:47:54.556Z,10.00
2018-11-13T16:50:24.273Z,10.00
2018-11-13T16:52:52.741Z,10.00
2018-11-13T16:55:26.569Z,9.90
2018-11-13T16:57:55.636Z,9.90
2018-11-13T17:00:24.837Z,9.90
2018-11-13T17:02:53.429Z,9.80
2018-11-13T17:05:22.599Z,9.80
2018-11-13T17:07:51.463Z,9.70
2018-11-13T17:10:22.278Z,9.70
2018-11-13T17:12:51.382Z,9.70
2018-11-13T17:15:21.049Z,9.70
2018-11-13T17:17:50.394Z,9.70
2018-11-13T17:20:18.887Z,9.70
2018-11-13T17:22:48.093Z,9.70
2018-11-13T17:25:17.878Z,9.70
2018-11-13T17:27:47.505Z,9.70
2018-11-13T17:30:21.509Z,9.70
2018-11-13T17:32:50.675Z,9.70
2018-11-13T17:35:23.619Z,9.70
2018-11-13T17:37:52.787Z,9.70
2018-11-13T17:40:22.629Z,9.70
2018-11-13T17:42:52.494Z,9.60
2018-11-13T17:45:25.194Z,9.70
2018-11-13T17:47:53.654Z,9.70
2018-11-13T17:50:29.553Z,9.70
2018-11-13T17:52:58.142Z,9.70
2018-11-13T17:55:26.697Z,9.60
2018-11-13T17:57:56.690Z,9.60
2018-11-13T18:00:41.739Z,9.60
2018-11-13T18:03:11.383Z,9.60
2018-11-13T18:05:40.138Z,9.60
2018-11-13T18:08:09.461Z,9.60
2018-11-13T18:10:39.326Z,9.60
2018-11-13T18:13:07.965Z,9.60
2018-11-13T18:15:36.391Z,9.50
2018-11-13T18:18:05.492Z,9.40
2018-11-13T18:20:35.179Z,9.40
2018-11-13T18:23:04.017Z,9.40
2018-11-13T18:25:32.481Z,9.40
2018-11-13T18:28:02.246Z,9.40
2018-11-13T18:30:32.698Z,9.30
2018-11-13T18:33:01.914Z,9.30
2018-11-13T18:35:31.691Z,9.30
2018-11-13T18:38:01.681Z,9.30
2018-11-13T18:40:30.190Z,9.30
2018-11-13T18:42:59.793Z,9.30
2018-11-13T18:45:31.503Z,9.30
2018-11-13T18:47:59.962Z,9.30
2018-11-13T18:50:29.761Z,9.20
2018-11-13T18:52:58.222Z,9.20
2018-11-13T18:55:26.786Z,9.30
2018-11-13T18:57:55.237Z,9.30
2018-11-13T19:00:24.922Z,9.30
2018-11-13T19:02:53.413Z,9.30
2018-11-13T19:05:22.271Z,9.30
2018-11-13T19:07:50.767Z,9.30
2018-11-13T19:10:51.589Z,9.30
2018-11-13T19:13:21.710Z,9.30
2018-11-13T19:15:52.664Z,9.20
2018-11-13T19:18:21.693Z,9.30
2018-11-13T19:20:50.261Z,9.20
2018-11-13T19:23:19.261Z,9.20
2018-11-13T19:25:47.691Z,9.20
2018-11-13T19:28:16.129Z,9.20
2018-11-13T19:30:44.582Z,9.20
2018-11-13T19:33:13.036Z,9.20
2018-11-13T19:35:41.647Z,9.10
2018-11-13T19:38:10.453Z,9.10
2018-11-13T19:40:38.906Z,9.10
2018-11-13T19:43:08.571Z,9.10
2018-11-13T19:45:37.186Z,9.10
2018-11-13T19:48:05.698Z,9.10
2018-11-13T19:50:35.341Z,9.10
2018-11-13T19:53:04.142Z,9.10
2018-11-13T19:55:32.940Z,9.00
2018-11-13T19:58:01.425Z,9.10
2018-11-13T20:00:31.249Z,9.00
2018-11-13T20:03:01.559Z,9.00
2018-11-13T20:05:30.939Z,9.00
2018-11-13T20:07:59.417Z,9.00
2018-11-13T20:10:30.138Z,9.00
2018-11-13T20:13:00.047Z,9.00
2018-11-13T20:15:29.447Z,9.00
2018-11-13T20:17:57.876Z,9.00
2018-11-13T20:20:28.594Z,8.90
2018-11-13T20:22:57.789Z,9.00
2018-11-13T20:25:28.021Z,8.90
2018-11-13T20:27:56.481Z,8.90
2018-11-13T20:30:27.337Z,8.90
2018-11-13T20:32:55.906Z,8.90
2018-11-13T20:35:24.366Z,8.90
2018-11-13T20:37:53.480Z,8.90
2018-11-13T20:40:29.846Z,8.80
2018-11-13T20:43:00.745Z,8.80
2018-11-13T20:45:29.244Z,8.80
2018-11-13T20:47:57.667Z,8.80
2018-11-13T20:50:27.460Z,8.70
2018-11-13T20:52:55.889Z,8.70
2018-11-13T20:55:24.354Z,8.70
2018-11-13T20:57:52.891Z,8.70
2018-11-13T21:00:22.565Z,8.70
2018-11-13T21:02:51.113Z,8.70
2018-11-13T21:05:19.958Z,8.70
2018-11-13T21:07:48.826Z,8.70
2018-11-13T21:10:19.123Z,8.60
2018-11-13T21:12:47.791Z,8.60
2018-11-13T21:15:17.869Z,8.60
2018-11-13T21:17:46.402Z,8.60
2018-11-13T21:20:16.337Z,8.60
2018-11-13T21:22:44.810Z,8.70
2018-11-13T21:25:15.041Z,8.60
2018-11-13T21:27:43.510Z,8.60
2018-11-13T21:30:14.434Z,8.60
2018-11-13T21:32:43.749Z,8.60
2018-11-13T21:35:12.667Z,8.60
2018-11-13T21:37:42.259Z,8.60
2018-11-13T21:40:12.921Z,8.50
2018-11-13T21:42:41.982Z,8.50
2018-11-13T21:45:11.359Z,8.50
2018-11-13T21:47:40.029Z,8.50
2018-11-13T21:50:10.548Z,8.50
2018-11-13T21:52:39.015Z,8.50
2018-11-13T21:55:09.146Z,8.50
2018-11-13T21:57:37.657Z,8.50
2018-11-13T22:00:13.174Z,8.50
2018-11-13T22:02:44.997Z,8.40
2018-11-13T22:05:13.493Z,8.40
2018-11-13T22:07:41.969Z,8.40
2018-11-13T22:10:11.424Z,8.40
2018-11-13T22:12:39.902Z,8.30
2018-11-13T22:15:11.229Z,8.30
2018-11-13T22:17:39.429Z,8.30
2018-11-13T22:20:09.156Z,8.30
2018-11-13T22:22:37.822Z,8.30
2018-11-13T22:25:08.909Z,8.20
2018-11-13T22:27:37.482Z,8.20
2018-11-13T22:30:07.127Z,8.20
2018-11-13T22:32:35.632Z,8.20
2018-11-13T22:35:04.356Z,8.20
2018-11-13T22:37:32.814Z,8.20
2018-11-13T22:40:01.283Z,8.20
2018-11-13T22:42:29.743Z,8.10
2018-11-13T22:44:58.182Z,8.10
2018-11-13T22:47:26.625Z,8.10
2018-11-13T22:49:55.038Z,8.10
2018-11-13T22:52:23.492Z,8.10
2018-11-13T22:54:52.082Z,8.10
2018-11-13T22:57:20.522Z,8.10
2018-11-13T22:59:48.971Z,8.00
2018-11-13T23:02:18.525Z,8.00
2018-11-13T23:04:47.511Z,8.00
2018-11-13T23:07:15.986Z,8.00
2018-11-13T23:09:44.406Z,7.90
2018-11-13T23:12:12.842Z,8.00
2018-11-13T23:14:41.296Z,8.00
2018-11-13T23:17:09.926Z,8.00
2018-11-13T23:19:38.353Z,7.90
2018-11-13T23:22:06.827Z,7.90
2018-11-13T23:24:35.312Z,7.90
2018-11-13T23:27:03.830Z,7.90
2018-11-13T23:29:32.646Z,7.80
2018-11-13T23:32:01.223Z,7.90
2018-11-13T23:34:29.899Z,7.80
2018-11-13T23:36:59.097Z,7.80
2018-11-13T23:39:29.115Z,7.80
2018-11-13T23:41:58.813Z,7.80
2018-11-13T23:44:28.116Z,7.80
2018-11-13T23:46:57.206Z,7.80
2018-11-13T23:49:25.681Z,7.80
2018-11-13T23:51:54.313Z,7.80
2018-11-13T23:54:22.754Z,7.80
2018-11-13T23:56:51.198Z,7.70
2018-11-13T23:59:20.061Z,7.70
